Time,TemperatureF,DewpointF,PressureIn,WindDirection,WindDirectionDegrees,WindSpeedMPH,WindSpeedGustMPH,Humidity,HourlyPrecipIn,Conditions,Clouds,dailyrainin,SoftwareType,DateUTC
2013-02-08 00:01:00,39.0,24.0,29.94,SE,144,1.0,-999.0,55,-99.99,,,-99.99,,2013-02-08 07:01:00,
2013-02-08 00:11:00,39.0,24.0,29.94,SE,144,1.0,-999.0,55,-99.99,,,-99.99,,2013-02-08 07:11:00,
2013-02-08 00:21:00,39.0,25.0,29.94,SE,144,1.0,-999.0,56,-99.99,,,-99.99,,2013-02-08 07:21:00,
2013-02-08 00:31:00,38.0,24.0,29.93,SE,144,1.0,-999.0,57,-99.99,,,-99.99,,2013-02-08 07:31:00,
2013-02-08 00:41:00,38.0,24.0,29.94,SE,144,1.0,-999.0,57,-99.99,,,-99.99,,2013-02-08 07:41:00,
2013-02-08 00:52:00,38.0,24.0,29.94,SE,144,1.0,-999.0,57,-99.99,,,-99.99,,2013-02-08 07:52:00,
2013-02-08 01:01:00,38.0,24.0,29.94,SE,144,0.0,-999.0,57,-99.99,,,-99.99,,2013-02-08 08:01:00,
2013-02-08 01:11:00,38.0,24.0,29.93,SE,144,0.0,-999.0,57,-99.99,,,-99.99,,2013-02-08 08:11:00,
2013-02-08 01:21:00,38.0,24.0,29.93,SE,144,0.0,-999.0,57,-99.99,,,-99.99,,2013-02-08 08:21:00,
2013-02-08 01:32:00,40.0,25.0,29.93,SE,134,1.0,-999.0,54,-99.99,,,-99.99,,2013-02-08 08:32:00,
2013-02-08 01:41:00,40.0,25.0,29.93,SE,134,1.0,-999.0,54,-99.99,,,-99.99,,2013-02-08 08:41:00,
2013-02-08 01:52:00,44.0,23.0,29.93,ESE,123,4.0,-999.0,44,-99.99,,,-99.99,,2013-02-08 08:52:00,
2013-02-08 02:02:00,45.0,22.0,29.93,ESE,121,1.0,-999.0,40,-99.99,,,-99.99,,2013-02-08 09:02:00,
2013-02-08 02:11:00,45.0,22.0,29.93,ESE,121,1.0,-999.0,40,-99.99,,,-99.99,,2013-02-08 09:11:00,
2013-02-08 02:21:00,45.0,21.0,29.92,ESE,121,0.0,-999.0,38,-99.99,,,-99.99,,2013-02-08 09:21:00,
2013-02-08 02:31:00,46.0,23.0,29.92,ESE,117,2.0,-999.0,40,-99.99,,,-99.99,,2013-02-08 09:31:00,
2013-02-08 02:41:00,46.0,23.0,29.92,ESE,117,2.0,-999.0,40,-99.99,,,-99.99,,2013-02-08 09:41:00,
2013-02-08 02:52:00,46.0,24.0,29.91,East,98,3.0,-999.0,41,-99.99,,,-99.99,,2013-02-08 09:52:00,
2013-02-08 03:01:00,46.0,22.0,29.91,East,101,2.0,-999.0,39,-99.99,,,-99.99,,2013-02-08 10:01:00,
2013-02-08 03:11:00,46.0,22.0,29.91,East,101,2.0,-999.0,39,-99.99,,,-99.99,,2013-02-08 10:11:00,
2013-02-08 03:22:00,45.0,22.0,29.90,ESE,113,1.0,-999.0,40,-99.99,,,-99.99,,2013-02-08 10:22:00,
2013-02-08 03:31:00,44.0,22.0,29.89,ESE,114,3.0,-999.0,41,-99.99,,,-99.99,,2013-02-08 10:31:00,
2013-02-08 03:41:00,44.0,22.0,29.89,ESE,114,3.0,-999.0,41,-99.99,,,-99.99,,2013-02-08 10:41:00,
2013-02-08 03:51:00,45.0,23.0,29.89,ESE,113,5.0,-999.0,41,-99.99,,,-99.99,,2013-02-08 10:51:00,
2013-02-08 04:01:00,44.0,22.0,29.89,SSE,153,1.0,-999.0,41,-99.99,,,-99.99,,2013-02-08 11:01:00,
2013-02-08 04:11:00,44.0,22.0,29.89,SSE,153,1.0,-999.0,41,-99.99,,,-99.99,,2013-02-08 11:11:00,
2013-02-08 04:21:00,44.0,22.0,29.88,SSE,153,1.0,-999.0,42,-99.99,,,-99.99,,2013-02-08 11:21:00,
2013-02-08 04:32:00,43.0,22.0,29.89,SSE,153,1.0,-999.0,43,-99.99,,,-99.99,,2013-02-08 11:32:00,
2013-02-08 04:41:00,43.0,22.0,29.89,SSE,153,1.0,-999.0,43,-99.99,,,-99.99,,2013-02-08 11:41:00,
2013-02-08 04:52:00,43.0,23.0,29.88,SE,138,1.0,-999.0,45,-99.99,,,-99.99,,2013-02-08 11:52:00,
2013-02-08 05:01:00,42.0,23.0,29.88,SE,138,0.0,-999.0,46,-99.99,,,-99.99,,2013-02-08 12:01:00,
2013-02-08 05:11:00,42.0,23.0,29.88,SE,138,0.0,-999.0,46,-99.99,,,-99.99,,2013-02-08 12:11:00,
2013-02-08 05:21:00,40.0,22.0,29.88,SE,138,0.0,-999.0,49,-99.99,,,-99.99,,2013-02-08 12:21:00,
2013-02-08 05:32:00,40.0,22.0,29.88,SE,138,1.0,-999.0,49,-99.99,,,-99.99,,2013-02-08 12:32:00,
2013-02-08 05:41:00,40.0,22.0,29.88,SE,138,1.0,-999.0,49,-99.99,,,-99.99,,2013-02-08 12:41:00,
2013-02-08 05:52:00,39.0,22.0,29.88,SE,138,0.0,-999.0,50,-99.99,,,-99.99,,2013-02-08 12:52:00,
2013-02-08 06:01:00,39.0,22.0,29.88,SE,145,1.0,-999.0,50,-99.99,,,-99.99,,2013-02-08 13:01:00,
2013-02-08 06:11:00,39.0,22.0,29.88,SE,145,1.0,-999.0,50,-99.99,,,-99.99,,2013-02-08 13:11:00,
2013-02-08 06:21:00,40.0,22.0,29.88,SE,138,2.0,-999.0,48,-99.99,,,-99.99,,2013-02-08 13:21:00,
2013-02-08 06:32:00,41.0,22.0,29.88,SE,136,2.0,-999.0,47,-99.99,,,-99.99,,2013-02-08 13:32:00,
2013-02-08 06:42:00,41.0,22.0,29.88,SE,136,2.0,-999.0,47,-99.99,,,-99.99,,2013-02-08 13:42:00,
2013-02-08 06:52:00,40.0,22.0,29.88,SE,136,0.0,-999.0,49,-99.99,,,-99.99,,2013-02-08 13:52:00,
2013-02-08 07:01:00,40.0,23.0,29.87,ESE,109,3.0,-999.0,50,-99.99,,,-99.99,,2013-02-08 14:01:00,
2013-02-08 07:11:00,40.0,23.0,29.87,ESE,109,3.0,-999.0,50,-99.99,,,-99.99,,2013-02-08 14:11:00,
2013-02-08 07:21:00,39.0,23.0,29.88,ESE,109,1.0,-999.0,52,-99.99,,,-99.99,,2013-02-08 14:21:00,
2013-02-08 07:32:00,38.0,22.0,29.87,ESE,109,0.0,-999.0,53,-99.99,,,-99.99,,2013-02-08 14:32:00,
2013-02-08 07:41:00,38.0,22.0,29.87,ESE,109,0.0,-999.0,53,-99.99,,,-99.99,,2013-02-08 14:41:00,
2013-02-08 07:52:00,37.0,22.0,29.87,ESE,109,0.0,-999.0,54,-99.99,,,-99.99,,2013-02-08 14:52:00,
2013-02-08 08:01:00,37.0,23.0,29.86,ESE,109,0.0,-999.0,57,-99.99,,,-99.99,,2013-02-08 15:01:00,
2013-02-08 08:11:00,37.0,23.0,29.86,ESE,109,0.0,-999.0,57,-99.99,,,-99.99,,2013-02-08 15:11:00,
2013-02-08 08:21:00,39.0,23.0,29.86,NW,322,0.0,-999.0,53,-99.99,,,-99.99,,2013-02-08 15:21:00,
2013-02-08 08:31:00,42.0,21.0,29.85,NNW,336,0.0,-999.0,43,-99.99,,,-99.99,,2013-02-08 15:31:00,
2013-02-08 08:41:00,42.0,21.0,29.85,NNW,336,0.0,-999.0,43,-99.99,,,-99.99,,2013-02-08 15:41:00,
2013-02-08 08:52:00,46.0,21.0,29.86,ESE,111,1.0,-999.0,37,-99.99,,,-99.99,,2013-02-08 15:52:00,
2013-02-08 09:01:00,49.0,19.0,29.85,ESE,108,4.0,-999.0,30,-99.99,,,-99.99,,2013-02-08 16:01:00,
2013-02-08 09:11:00,49.0,19.0,29.85,ESE,108,4.0,-999.0,30,-99.99,,,-99.99,,2013-02-08 16:11:00,
2013-02-08 09:21:00,51.0,20.0,29.85,East,97,4.0,-999.0,29,-99.99,,,-99.99,,2013-02-08 16:21:00,
2013-02-08 09:32:00,52.0,14.0,29.85,NE,39,2.0,-999.0,22,-99.99,,,-99.99,,2013-02-08 16:32:00,
2013-02-08 09:41:00,52.0,14.0,29.85,NE,39,2.0,-999.0,22,-99.99,,,-99.99,,2013-02-08 16:41:00,
2013-02-08 09:52:00,54.0,15.0,29.86,NW,317,1.0,-999.0,21,-99.99,,,-99.99,,2013-02-08 16:52:00,
2013-02-08 10:01:00,55.0,12.0,29.85,NE,39,5.0,-999.0,18,-99.99,,,-99.99,,2013-02-08 17:01:00,
2013-02-08 10:11:00,55.0,12.0,29.85,NE,39,5.0,-999.0,18,-99.99,,,-99.99,,2013-02-08 17:11:00,
2013-02-08 10:22:00,57.0,8.0,29.85,WSW,240,10.0,-999.0,14,-99.99,,,-99.99,,2013-02-08 17:22:00,
2013-02-08 10:31:00,57.0,7.0,29.85,WNW,284,10.0,-999.0,13,-99.99,,,-99.99,,2013-02-08 17:31:00,
2013-02-08 10:42:00,57.0,7.0,29.85,WNW,284,10.0,-999.0,13,-99.99,,,-99.99,,2013-02-08 17:42:00,
2013-02-08 10:52:00,58.0,7.0,29.85,WSW,249,8.0,-999.0,13,-99.99,,,-99.99,,2013-02-08 17:52:00,
2013-02-08 11:01:00,58.0,7.0,29.85,WSW,250,10.0,-999.0,13,-99.99,,,-99.99,,2013-02-08 18:01:00,
2013-02-08 11:23:00,59.0,6.0,29.85,WSW,237,10.0,-999.0,12,-99.99,,,-99.99,,2013-02-08 18:23:00,
2013-02-08 11:32:00,59.0,11.0,29.84,SW,223,10.0,-999.0,15,-99.99,,,-99.99,,2013-02-08 18:32:00,
2013-02-08 11:42:00,59.0,11.0,29.84,SW,223,10.0,-999.0,15,-99.99,,,-99.99,,2013-02-08 18:42:00,
2013-02-08 11:52:00,59.0,10.0,29.84,WSW,249,11.0,-999.0,14,-99.99,,,-99.99,,2013-02-08 18:52:00,
2013-02-08 12:01:00,60.0,11.0,29.83,WSW,248,9.0,-999.0,14,-99.99,,,-99.99,,2013-02-08 19:01:00,
2013-02-08 12:11:00,60.0,11.0,29.83,WSW,248,9.0,-999.0,14,-99.99,,,-99.99,,2013-02-08 19:11:00,
2013-02-08 12:21:00,60.0,5.0,29.81,West,274,13.0,-999.0,11,-99.99,,,-99.99,,2013-02-08 19:21:00,
2013-02-08 12:32:00,60.0,7.0,29.80,WSW,244,16.0,-999.0,12,-99.99,,,-99.99,,2013-02-08 19:32:00,
2013-02-08 12:41:00,60.0,7.0,29.80,WSW,244,16.0,-999.0,12,-99.99,,,-99.99,,2013-02-08 19:41:00,
2013-02-08 12:52:00,60.0,7.0,29.80,SSW,205,16.0,-999.0,12,-99.99,,,-99.99,,2013-02-08 19:52:00,
2013-02-08 13:01:00,60.0,11.0,29.79,WSW,248,13.0,-999.0,14,-99.99,,,-99.99,,2013-02-08 20:01:00,
2013-02-08 13:11:00,60.0,11.0,29.79,WSW,248,13.0,-999.0,14,-99.99,,,-99.99,,2013-02-08 20:11:00,
2013-02-08 13:21:00,60.0,12.0,29.78,SW,222,14.0,-999.0,15,-99.99,,,-99.99,,2013-02-08 20:21:00,
2013-02-08 13:31:00,60.0,14.0,29.78,WSW,257,14.0,-999.0,16,-99.99,,,-99.99,,2013-02-08 20:31:00,
2013-02-08 13:41:00,60.0,14.0,29.78,WSW,257,14.0,-999.0,16,-99.99,,,-99.99,,2013-02-08 20:41:00,
2013-02-08 13:52:00,60.0,12.0,29.76,SW,220,17.0,-999.0,15,-99.99,,,-99.99,,2013-02-08 20:52:00,
2013-02-08 14:01:00,60.0,9.0,29.76,SSE,159,15.0,-999.0,13,-99.99,,,-99.99,,2013-02-08 21:01:00,
2013-02-08 14:11:00,60.0,9.0,29.76,SSE,159,15.0,-999.0,13,-99.99,,,-99.99,,2013-02-08 21:11:00,
2013-02-08 14:21:00,61.0,10.0,29.75,SW,215,15.0,-999.0,13,-99.99,,,-99.99,,2013-02-08 21:21:00,
2013-02-08 14:32:00,61.0,10.0,29.75,West,260,16.0,-999.0,13,-99.99,,,-99.99,,2013-02-08 21:32:00,
2013-02-08 14:41:00,61.0,10.0,29.75,West,260,16.0,-999.0,13,-99.99,,,-99.99,,2013-02-08 21:41:00,
2013-02-08 14:52:00,60.0,12.0,29.75,West,269,15.0,-999.0,15,-99.99,,,-99.99,,2013-02-08 21:52:00,
2013-02-08 15:01:00,61.0,8.0,29.75,West,270,13.0,-999.0,12,-99.99,,,-99.99,,2013-02-08 22:01:00,
2013-02-08 15:11:00,61.0,8.0,29.75,West,270,13.0,-999.0,12,-99.99,,,-99.99,,2013-02-08 22:11:00,
2013-02-08 15:21:00,61.0,8.0,29.75,SW,224,14.0,-999.0,12,-99.99,,,-99.99,,2013-02-08 22:21:00,
2013-02-08 15:31:00,61.0,6.0,29.75,WSW,248,13.0,-999.0,11,-99.99,,,-99.99,,2013-02-08 22:31:00,
2013-02-08 15:41:00,61.0,6.0,29.75,WSW,248,13.0,-999.0,11,-99.99,,,-99.99,,2013-02-08 22:41:00,
2013-02-08 15:52:00,60.0,5.0,29.74,SSW,196,10.0,-999.0,11,-99.99,,,-99.99,,2013-02-08 22:52:00,
2013-02-08 16:01:00,60.0,5.0,29.74,SSW,196,10.0,-999.0,11,-99.99,,,-99.99,,2013-02-08 23:01:00,
2013-02-08 16:11:00,60.0,5.0,29.74,SSW,196,10.0,-999.0,11,-99.99,,,-99.99,,2013-02-08 23:11:00,
2013-02-08 16:21:00,59.0,8.0,29.73,SSW,205,11.0,-999.0,13,-99.99,,,-99.99,,2013-02-08 23:21:00,
2013-02-08 16:31:00,59.0,5.0,29.73,SSW,198,8.0,-999.0,11,-99.99,,,-99.99,,2013-02-08 23:31:00,
2013-02-08 16:42:00,59.0,5.0,29.73,SSW,198,8.0,-999.0,11,-99.99,,,-99.99,,2013-02-08 23:42:00,
2013-02-08 16:52:00,58.0,4.0,29.73,SSW,211,12.0,-999.0,11,-99.99,,,-99.99,,2013-02-08 23:52:00,
2013-02-08 17:01:00,57.0,8.0,29.74,SW,218,13.0,-999.0,14,-99.99,,,-99.99,,2013-02-09 00:01:00,
2013-02-08 17:11:00,57.0,8.0,29.74,SW,218,13.0,-999.0,14,-99.99,,,-99.99,,2013-02-09 00:11:00,
2013-02-08 17:21:00,56.0,9.0,29.74,SW,231,12.0,-999.0,15,-99.99,,,-99.99,,2013-02-09 00:21:00,
2013-02-08 17:31:00,56.0,10.0,29.73,South,191,15.0,-999.0,16,-99.99,,,-99.99,,2013-02-09 00:31:00,
2013-02-08 17:41:00,56.0,10.0,29.73,South,191,15.0,-999.0,16,-99.99,,,-99.99,,2013-02-09 00:41:00,
2013-02-08 17:52:00,55.0,10.0,29.73,WSW,257,15.0,-999.0,16,-99.99,,,-99.99,,2013-02-09 00:52:00,
2013-02-08 18:01:00,55.0,11.0,29.74,SW,231,14.0,-999.0,17,-99.99,,,-99.99,,2013-02-09 01:01:00,
2013-02-08 18:11:00,55.0,11.0,29.74,SW,231,14.0,-999.0,17,-99.99,,,-99.99,,2013-02-09 01:11:00,
2013-02-08 18:21:00,54.0,11.0,29.74,SSW,197,16.0,-999.0,18,-99.99,,,-99.99,,2013-02-09 01:21:00,
2013-02-08 18:31:00,54.0,11.0,29.74,SSW,197,16.0,-999.0,18,-99.99,,,-99.99,,2013-02-09 01:31:00,
2013-02-08 18:41:00,54.0,11.0,29.74,SSW,197,16.0,-999.0,18,-99.99,,,-99.99,,2013-02-09 01:41:00,
2013-02-08 18:52:00,54.0,14.0,29.74,West,266,15.0,-999.0,20,-99.99,,,-99.99,,2013-02-09 01:52:00,
2013-02-08 19:01:00,53.0,13.0,29.74,SSW,196,16.0,-999.0,20,-99.99,,,-99.99,,2013-02-09 02:01:00,
2013-02-08 19:11:00,53.0,15.0,29.73,South,189,12.0,-999.0,22,-99.99,,,-99.99,,2013-02-09 02:11:00,
2013-02-08 19:21:00,53.0,15.0,29.73,South,189,12.0,-999.0,22,-99.99,,,-99.99,,2013-02-09 02:21:00,
2013-02-08 19:31:00,53.0,15.0,29.74,South,171,15.0,-999.0,22,-99.99,,,-99.99,,2013-02-09 02:31:00,
2013-02-08 19:41:00,53.0,15.0,29.74,South,171,15.0,-999.0,22,-99.99,,,-99.99,,2013-02-09 02:41:00,
2013-02-08 19:52:00,52.0,16.0,29.74,SSW,210,10.0,-999.0,24,-99.99,,,-99.99,,2013-02-09 02:52:00,
2013-02-08 20:01:00,52.0,16.0,29.74,WSW,251,14.0,-999.0,24,-99.99,,,-99.99,,2013-02-09 03:01:00,
2013-02-08 20:11:00,52.0,16.0,29.74,WSW,251,14.0,-999.0,24,-99.99,,,-99.99,,2013-02-09 03:11:00,
2013-02-08 20:21:00,52.0,17.0,29.73,WSW,252,13.0,-999.0,25,-99.99,,,-99.99,,2013-02-09 03:21:00,
2013-02-08 20:31:00,52.0,17.0,29.74,SSW,202,14.0,-999.0,25,-99.99,,,-99.99,,2013-02-09 03:31:00,
2013-02-08 20:41:00,52.0,17.0,29.74,SSW,202,14.0,-999.0,25,-99.99,,,-99.99,,2013-02-09 03:41:00,
2013-02-08 20:52:00,51.0,16.0,29.73,SSW,213,15.0,-999.0,24,-99.99,,,-99.99,,2013-02-09 03:52:00,
2013-02-08 21:01:00,51.0,16.0,29.72,WSW,254,13.0,-999.0,25,-99.99,,,-99.99,,2013-02-09 04:01:00,
2013-02-08 21:11:00,51.0,15.0,29.72,WSW,244,15.0,-999.0,23,-99.99,,,-99.99,,2013-02-09 04:11:00,
2013-02-08 21:22:00,51.0,15.0,29.72,WSW,244,15.0,-999.0,23,-99.99,,,-99.99,,2013-02-09 04:22:00,
2013-02-08 21:31:00,51.0,15.0,29.73,SSW,202,17.0,-999.0,23,-99.99,,,-99.99,,2013-02-09 04:31:00,
2013-02-08 21:42:00,51.0,15.0,29.73,SSW,202,17.0,-999.0,23,-99.99,,,-99.99,,2013-02-09 04:42:00,
2013-02-08 21:52:00,51.0,16.0,29.73,South,178,16.0,-999.0,24,-99.99,,,-99.99,,2013-02-09 04:52:00,
2013-02-08 22:02:00,50.0,16.0,29.72,SW,227,15.0,-999.0,26,-99.99,,,-99.99,,2013-02-09 05:02:00,
2013-02-08 22:11:00,50.0,16.0,29.72,SW,227,15.0,-999.0,26,-99.99,,,-99.99,,2013-02-09 05:11:00,
2013-02-08 22:22:00,50.0,19.0,29.72,WSW,248,15.0,-999.0,29,-99.99,,,-99.99,,2013-02-09 05:22:00,
2013-02-08 22:31:00,49.0,17.0,29.72,SSW,211,15.0,-999.0,28,-99.99,,,-99.99,,2013-02-09 05:31:00,
2013-02-08 22:41:00,49.0,17.0,29.72,SSW,211,15.0,-999.0,28,-99.99,,,-99.99,,2013-02-09 05:41:00,
2013-02-08 22:52:00,49.0,20.0,29.72,South,184,12.0,-999.0,31,-99.99,,,-99.99,,2013-02-09 05:52:00,
2013-02-08 23:01:00,49.0,16.0,29.72,SSW,211,14.0,-999.0,26,-99.99,,,-99.99,,2013-02-09 06:01:00,
2013-02-08 23:11:00,49.0,16.0,29.72,SSW,211,14.0,-999.0,26,-99.99,,,-99.99,,2013-02-09 06:11:00,
2013-02-08 23:21:00,48.0,20.0,29.72,SW,236,12.0,-999.0,33,-99.99,,,-99.99,,2013-02-09 06:21:00,
2013-02-08 23:31:00,48.0,18.0,29.71,South,172,13.0,-999.0,30,-99.99,,,-99.99,,2013-02-09 06:31:00,
2013-02-08 23:41:00,48.0,18.0,29.71,South,172,13.0,-999.0,30,-99.99,,,-99.99,,2013-02-09 06:41:00,
2013-02-08 23:52:00,48.0,17.0,29.70,South,171,14.0,-999.0,29,-99.99,,,-99.99,,2013-02-09 06:52:00,